Snake Valley, Nevada Weather observations

Data are for 10 minute period ending at time listed.
 Day   Time   Solar   Ave.   Ave.  Ave.  Vector  Max.   Baro.   Total    
  of    of     Rad.   Air    Rel.  Wind   Wind   Wind  Press.  Precip.   
Year   Day            Temp.  Hum.  Speed  Dir.   Gust                    
2015   (PST)  Kw/m2    F      %     mph   deg.    mph    mb.     in.     
-------------------------------------------------------------------------
  89    0:50   0.00   32.0    66    3.3   296     4.3   845.4    0.00 
  89    1:00   0.00   31.6    67    4.0   291     5.1   845.5    0.00 
  89    1:10   0.00   32.8    63    3.8   299     4.4   845.4    0.00 
  89    1:20   0.00   34.6    56    3.5   318     4.3   845.3    0.00 
  89    1:30   0.00   35.8    50    4.1   316     4.8   845.3    0.00 
  89    1:40   0.00   33.8    58    4.4   293     5.3   845.3    0.00 
  89    1:50   0.00   31.6    66    4.8   293     5.3   845.2    0.00 
  89    2:00   0.00   32.6    60    4.1   313     5.2   845.2    0.00 
  89    2:10   0.00   33.8    55    3.6   320     4.5   845.3    0.00 
  89    2:20   0.00   31.4    64    3.1   253     3.8   845.4    0.00 
  89    2:30   0.00   32.6    59    3.7   253     4.5   845.5    0.00 
  89    2:40   0.00   31.2    66    4.2   264     5.0   845.5    0.00 
  89    2:50   0.00   30.6    68    5.0   291     5.8   845.6    0.00 
  89    3:00   0.00   30.8    67    5.3   288     6.4   845.7    0.00 
  89    3:10   0.00   30.8    66    4.5   289     5.6   845.7    0.00 
  89    3:20   0.00   30.3    68    4.7   278     6.4   845.7    0.00 
  89    3:30   0.00   30.3    67    3.3   274     5.0   845.8    0.00 
  89    3:40   0.00   31.7    62    3.6   287     4.7   845.9    0.00 
  89    3:50   0.00   31.6    60    2.9   281     5.0   845.9    0.00 
  89    4:00   0.00   29.5    62    2.0   214     3.4   845.9    0.00 
  89    4:10   0.00   29.5    66    0.9   219     2.4   845.9    0.00 
  89    4:20   0.00   30.8    62    1.7   272     5.4   846.0    0.00 
  89    4:30   0.00   31.4    61    2.8   288     5.0   846.0    0.00 
  89    4:40   0.00   29.8    65    4.0   283     4.7   846.1    0.00 
  89    4:50   0.00   30.6    62    3.9   305     5.2   846.2    0.00 
  89    5:00   0.00   30.2    62    3.2   293     4.4   846.2    0.00 
  89    5:10   0.00   28.9    62    1.9   164     3.9   846.4    0.00 
  89    5:20   0.00   28.8    66    0.9   147     3.7   846.4    0.00 
  89    5:30   0.01   29.7    64    1.1   259     2.3   846.4    0.00 
  89    5:40   0.02   28.3    67    2.9   310     4.3   846.5    0.00 
  89    5:50   0.04   29.0    66    3.6   330     4.1   846.6    0.00 
  89    6:00   0.06   30.9    60    2.4   354     3.9   846.6    0.00 
  89    6:10   0.09   31.7    60    1.5   340     2.0   846.7    0.00 
  89    6:20   0.11   33.7    55    0.0     0     0.0   846.7    0.00 
  89    6:30   0.14   35.7    51    0.0     0     0.0   846.7    0.00 
  89    6:40   0.17   37.4    53    0.1   225     0.9   846.7    0.00 
  89    6:50   0.21   39.0    48    0.7   180     2.1   846.7    0.00 
  89    7:00   0.24   42.0    40    1.2   192     2.2   846.7    0.00 
  89    7:10   0.28   44.0    36    0.6   159     2.0   846.9    0.00 
  89    7:20   0.32   45.7    37    1.5   116     2.6   847.0    0.00 
  89    7:30   0.35   47.8    35    0.9    93     2.1   847.2    0.00 
  89    7:40   0.39   50.3    32    0.6   116     2.9   847.3    0.00 
  89    7:50   0.42   52.6    29    1.1   174     2.8   847.4    0.00 
  89    8:00   0.46   53.5    28    2.2   105     5.6   847.5    0.00 
  89    8:10   0.49   53.9    27    4.1   102     6.4   847.5    0.00 
  89    8:20   0.52   54.6    25    4.4   105     6.6   847.6    0.00 
  89    8:30   0.56   55.7    22    4.1   112     6.6   847.5    0.00 
  89    8:40   0.59   56.7    20    4.5   104     6.4   847.5    0.00 
  89    8:50   0.62   57.5    20    4.5    96     6.6   847.4    0.00 
  89    9:00   0.65   58.3    19    3.6    94     6.6   847.3    0.00 
  89    9:10   0.68   58.6    17    3.9   106     6.7   847.2    0.00 
  89    9:20   0.71   59.4    18    3.7    96     7.2   847.2    0.00 
  89    9:30   0.73   60.1    17    3.4    98     6.3   847.1    0.00 
  89    9:40   0.76   60.8    17    3.7   125     6.5   847.0    0.00 
  89    9:50   0.78   61.4    16    3.7   121     6.6   846.8    0.00 
  89   10:00   0.80   62.5    15    2.9   150     5.7   846.8    0.00 
  89   10:10   0.82   63.7    14    2.4   150     5.0   846.6    0.00 
  89   10:20   0.84   64.1    14    1.9    51     6.4   846.5    0.00 
  89   10:30   0.85   64.4    15    2.7    81     6.6   846.4    0.00 
  89   10:40   0.87   64.7    14    3.9   118     7.4   846.2    0.00 
  89   10:50   0.88   64.6    15    3.3   106     6.0   846.1    0.00 
  89   11:00   0.89   65.7    14    3.0   126     5.6   845.9    0.00 
  89   11:10   0.90   66.4    14    4.8   123     8.3   845.8    0.00 
  89   11:20   0.91   67.2    14    2.4    88     6.4   845.7    0.00 
  89   11:30   0.91   67.7    13    2.3   108     5.8   845.6    0.00 
  89   11:40   0.91   68.7    13    2.0    69     6.1   845.5    0.00 
  89   11:50   0.92   68.3    13    3.3    13     8.8   845.3    0.00 
  89   12:00   0.91   69.4    13    2.4    65     5.8   845.1    0.00 
  89   12:10   0.91   70.1    13    3.2   332     6.0   845.0    0.00 
  89   12:20   0.91   69.8    13    3.3   302     6.9   844.9    0.00 
  89   12:30   0.90   70.3    12    2.2   241     4.7   844.8    0.00 
  89   12:40   0.89   71.3    13    3.9    31     8.2   844.6    0.00 
  89   12:50   0.88   71.2    12    2.6     6     6.9   844.5    0.00 
  89   13:00   0.87   71.8    13    5.2    23    11.5   844.3    0.00 
  89   13:10   0.86   72.6    12    3.0    81     6.1   844.1    0.00 
  89   13:20   0.84   73.2    13    5.0    67    10.2   843.9    0.00 
  89   13:30   0.83   72.7    12    5.1    79     9.8   843.8    0.00 
  89   13:40   0.81   73.3    13    5.1    42    13.3   843.7    0.00 
  89   13:50   0.79   73.3    11    4.2    41     9.0   843.5    0.00 
  89   14:00   0.77   74.1    10    3.7    99     9.5   843.3    0.00 
  89   14:10   0.74   73.8    11    7.0    75    11.2   843.1    0.00 
  89   14:20   0.72   73.9    12    6.9    90    11.3   843.0    0.00 
  89   14:30   0.70   74.7    11    3.8    55     7.2   842.9    0.00 
  89   14:40   0.67   75.4    10    1.7   298     4.3   842.7    0.00 
  89   14:50   0.64   76.0    10    3.3    41     6.3   842.6    0.00 
  89   15:00   0.60   75.6    10    3.8    35     9.1   842.5    0.00 
  89   15:10   0.48   75.0    10    3.0   108     8.3   842.4    0.00 
  89   15:20   0.38   74.4     9    3.3   115     6.7   842.2    0.00 
  89   15:30   0.52   75.7     9    2.2   120     5.0   842.1    0.00 
  89   15:40   0.46   74.8    13    6.7    21    11.8   842.0    0.00 
  89   15:50   0.45   73.9    12    6.0    21    11.9   841.9    0.00 
  89   16:00   0.41   73.7    14    7.8    31    13.1   841.8    0.00 
  89   16:10   0.37   72.1    15   10.6    13    14.2   841.7    0.00 
  89   16:20   0.33   71.6    14   11.7    19    16.1   841.7    0.00 
  89   16:30   0.29   70.8    15   10.8    19    14.8   841.6    0.00 
  89   16:40   0.26   70.4    15   11.1    18    16.0   841.6    0.00 
  89   16:50   0.22   70.0    15   10.9    18    14.5   841.6    0.00 
  89   17:00   0.18   69.3    16    9.5    26    13.4   841.5    0.00 
  89   17:10   0.15   68.4    16    8.9    20    12.5   841.5    0.00 
  89   17:20   0.12   67.3    17    9.2    20    12.4   841.4    0.00 
  89   17:30   0.07   66.2    18    7.8    22    10.3   841.4    0.00 
  89   17:40   0.02   63.8    20    6.8    32    11.2   841.6    0.00 
  89   17:50   0.01   61.4    21    5.9    23     7.2   841.7    0.00 
  89   18:00   0.01   60.6    21    3.7   331     7.3   841.8    0.00 
  89   18:10   0.00   57.6    24    5.9   263     9.4   842.0    0.00 
  89   18:20   0.00   62.0    17    3.4   316     7.2   842.2    0.00 
  89   18:30   0.00   60.2    21    4.2   285     8.5   842.4    0.00 
  89   18:40   0.00   53.8    30    4.1   274     5.8   842.6    0.00 
  89   18:50   0.00   51.2    32    1.4   276     3.1   842.8    0.00 
  89   19:00   0.00   51.0    31    0.6   170     2.4   842.9    0.00 
  89   19:10   0.00   53.4    26    2.3   195     3.9   842.9    0.00 
  89   19:20   0.00   53.2    26    2.0   234     3.0   842.9    0.00 
  89   19:30   0.00   51.9    28    2.8   280     5.6   843.0    0.00 
  89   19:40   0.00   50.9    30    3.5   295     4.7   843.1    0.00 
  89   19:50   0.00   46.7    34    4.2   290     5.3   843.2    0.00 
  89   20:00   0.00   44.1    37    3.5   263     5.3   843.2    0.00 
  89   20:10   0.00   45.0    34    5.2   289     5.8   843.1    0.00 
  89   20:20   0.00   42.2    40    4.4   289     5.2   843.1    0.00 
  89   20:30   0.00   47.5    28    4.7   287     6.7   843.1    0.00 
  89   20:40   0.00   42.5    38    4.8   299     6.3   843.1    0.00 
  89   20:50   0.00   42.7    35    3.9   308     5.2   843.0    0.00 
  89   21:00   0.00   42.7    36    4.4   315     5.3   842.8    0.00 
  89   21:10   0.00   40.2    44    1.7   314     3.7   842.8    0.00 
  89   21:20   0.00   38.5    49    3.7   272     7.5   842.8    0.00 
  89   21:30   0.00   39.4    42    4.2   253     7.5   842.8    0.00 
  89   21:40   0.00   39.5    44    4.2   284     5.3   842.8    0.00 
  89   21:50   0.00   38.1    48    2.8   275     6.8   842.8    0.00 
  89   22:00   0.00   40.9    40    4.2   272     6.6   842.8    0.00 
  89   22:10   0.00   40.8    42    5.1   267     9.0   842.8    0.00 
  89   22:20   0.00   41.4    40    2.7   268     5.9   842.8    0.00 
  89   22:30   0.00   45.6    31    3.4   355     6.5   842.7    0.00 
  89   22:40   0.00   46.6    30    1.9   348     4.3   842.7    0.00 
  89   22:50   0.00   48.2    28    4.0    13     6.0   842.6    0.00 
  89   23:00   0.00   44.7    32    4.2   316     6.6   842.6    0.00 
  89   23:10   0.00   42.5    34    5.8   311     7.4   842.5    0.00 
  89   23:20   0.00   40.4    42    6.3   293     7.7   842.5    0.00 
  89   23:30   0.00   39.1    44    5.3   265     7.2   842.5    0.00 
  89   23:40   0.00   43.6    31    3.6   236     5.0   842.4    0.00 
  89   23:50   0.00   41.1    38    4.2   199     5.6   842.4    0.00 
  90    0:00   0.00   38.8    45    2.4   258     4.5   842.3    0.00 
  90    0:10   0.00   40.0    43    3.5   275     5.0   842.2    0.00 
  90    0:20   0.00   37.2    52    4.2   280     6.4   842.1    0.00 
  90    0:30   0.00   32.4    65    5.2   294     6.5   842.0    0.00 
  90    0:40   0.00   33.1    62    5.9   292     8.2   841.8    0.00 

Return to Snake Valley graphs page.


Western Regional Climate Center,wrcc@dri.edu